This is the latest recevied weather packets stored in our database for station/object WD8EHT. If no packets are shown the sender has not sent any weather packets the latest 1 day(s).
| Time | Temp. | Humidity | Pressure | Rain* | Wind** | Luminosity | Snow |
|---|---|---|---|---|---|---|---|
| 1777981041 | 11.67° C | 71% | 1002.3 hPa | 0 mm | 0.45 m/s, 3° | 32 W/m² | - |
| 1777980737 | 11.67° C | 72% | 1002.3 hPa | 0 mm | 0.45 m/s, 302° | 22 W/m² | - |
| 1777980434 | 11.67° C | 72% | 1002.3 hPa | 0 mm | 0.45 m/s, 15° | 24 W/m² | - |
| 1777980132 | 11.67° C | 72% | 1002 hPa | 0 mm | 0 m/s | 13 W/m² | - |
| 1777979831 | 11.67° C | 71% | 1001.6 hPa | 0 mm | 0 m/s | 16 W/m² | - |
| 1777979528 | 11.67° C | 72% | 1002.2 hPa | 0 mm | 0.45 m/s, 346° | 5 W/m² | - |
| 1777979224 | 11.67° C | 72% | 1001.8 hPa | 0 mm | 0 m/s | 3 W/m² | - |
| 1777978921 | 11.67° C | 72% | 1001.4 hPa | 0 mm | 0 m/s | 8 W/m² | - |
| 1777978618 | 11.67° C | 73% | 1001.8 hPa | 0 mm | 0.45 m/s, 13° | 4 W/m² | - |
| 1777978313 | 11.67° C | 74% | 1001.3 hPa | 0 mm | 0.45 m/s, 356° | 4 W/m² | - |
| 1777978010 | 11.67° C | 74% | 1001.3 hPa | 0 mm | 0.89 m/s, 42° | 8 W/m² | - |
| 1777977708 | 11.67° C | 75% | 1001.2 hPa | 0 mm | 0 m/s | 6 W/m² | - |
| 1777977404 | 11.67° C | 74% | 1001.3 hPa | 0 mm | 0.89 m/s, 332° | 3 W/m² | - |
| 1777977102 | 11.67° C | 73% | 1001 hPa | 0 mm | 0 m/s | 0 W/m² | - |
| 1777976799 | 11.67° C | 73% | 1001.1 hPa | 0 mm | 0.45 m/s, 336° | 0 W/m² | - |
| 1777976497 | 11.67° C | 74% | 1000.6 hPa | 0 mm | 0 m/s | 0 W/m² | - |
| 1777976195 | 12.22° C | 76% | 1000.8 hPa | 0 mm | 0 m/s | 0 W/m² | - |
| 1777975891 | 12.22° C | 76% | 1000.6 hPa | 0 mm | 0.45 m/s, 15° | 0 W/m² | - |
| 1777975587 | 12.22° C | 76% | 1000.3 hPa | 0 mm | 0.45 m/s, 13° | 0 W/m² | - |
| 1777975285 | 12.22° C | 78% | 1000.4 hPa | 0 mm | 0 m/s | 0 W/m² | - |
| 1777974980 | 12.22° C | 78% | 1000.9 hPa | 0 mm | 0.45 m/s, 359° | 0 W/m² | - |
| 1777974677 | 12.22° C | 80% | 1000.9 hPa | 0 mm | 0.45 m/s, 336° | 0 W/m² | - |
| 1777974374 | 12.22° C | 81% | 1000.7 hPa | 0 mm | 0 m/s | 0 W/m² | - |
| 1777974070 | 12.22° C | 83% | 1000.6 hPa | 0 mm | 0 m/s | 0 W/m² | - |
| 1777973767 | 12.22° C | 84% | 1000.5 hPa | 0 mm | 0.45 m/s, 25° | 0 W/m² | - |
* Rain latest hour (hover to see other rain measurements)
** Current wind speed in m/s (hover to see current wind gust speed)